sensor_id;sensor_type;location;lat;lon;timestamp;temperature;humidity
23160;DHT22;11748;50.844;4.396;2024-03-07T00:00:08;9.50;99.90
23160;DHT22;11748;50.844;4.396;2024-03-07T00:02:48;9.50;99.90
23160;DHT22;11748;50.844;4.396;2024-03-07T00:05:15;9.50;99.90
23160;DHT22;11748;50.844;4.396;2024-03-07T00:07:41;9.50;99.90
23160;DHT22;11748;50.844;4.396;2024-03-07T00:10:08;9.50;99.90
23160;DHT22;11748;50.844;4.396;2024-03-07T00:12:37;9.40;99.90
23160;DHT22;11748;50.844;4.396;2024-03-07T00:15:07;9.50;99.90
23160;DHT22;11748;50.844;4.396;2024-03-07T00:17:35;9.40;99.90
23160;DHT22;11748;50.844;4.396;2024-03-07T00:20:02;9.40;99.90
23160;DHT22;11748;50.844;4.396;2024-03-07T00:22:30;9.40;99.90
23160;DHT22;11748;50.844;4.396;2024-03-07T00:24:56;9.40;99.90
23160;DHT22;11748;50.844;4.396;2024-03-07T00:27:22;9.40;99.90
23160;DHT22;11748;50.844;4.396;2024-03-07T00:29:49;9.50;99.90
23160;DHT22;11748;50.844;4.396;2024-03-07T00:32:22;9.40;99.90
23160;DHT22;11748;50.844;4.396;2024-03-07T00:34:50;9.20;99.90
23160;DHT22;11748;50.844;4.396;2024-03-07T00:37:17;9.20;99.90
23160;DHT22;11748;50.844;4.396;2024-03-07T00:39:43;9.20;99.90
23160;DHT22;11748;50.844;4.396;2024-03-07T00:42:09;9.20;99.90
23160;DHT22;11748;50.844;4.396;2024-03-07T00:44:35;9.20;99.90
23160;DHT22;11748;50.844;4.396;2024-03-07T00:47:02;9.10;99.90
23160;DHT22;11748;50.844;4.396;2024-03-07T00:49:29;9.10;99.90
23160;DHT22;11748;50.844;4.396;2024-03-07T00:51:55;9.00;99.90
23160;DHT22;11748;50.844;4.396;2024-03-07T00:54:21;9.00;99.90
23160;DHT22;11748;50.844;4.396;2024-03-07T00:56:46;9.00;99.90
23160;DHT22;11748;50.844;4.396;2024-03-07T00:59:17;8.90;99.90
23160;DHT22;11748;50.844;4.396;2024-03-07T01:01:44;9.00;99.90
23160;DHT22;11748;50.844;4.396;2024-03-07T01:04:10;8.90;99.90
23160;DHT22;11748;50.844;4.396;2024-03-07T01:06:36;8.90;99.90
23160;DHT22;11748;50.844;4.396;2024-03-07T01:09:03;8.90;99.90
23160;DHT22;11748;50.844;4.396;2024-03-07T01:11:30;8.90;99.90
23160;DHT22;11748;50.844;4.396;2024-03-07T01:13:57;8.90;99.90
23160;DHT22;11748;50.844;4.396;2024-03-07T01:16:23;8.90;99.90
23160;DHT22;11748;50.844;4.396;2024-03-07T01:18:50;8.90;99.90
23160;DHT22;11748;50.844;4.396;2024-03-07T01:21:15;8.80;99.90
23160;DHT22;11748;50.844;4.396;2024-03-07T01:23:41;8.80;99.90
23160;DHT22;11748;50.844;4.396;2024-03-07T01:26:07;8.80;99.90
23160;DHT22;11748;50.844;4.396;2024-03-07T01:28:34;8.80;99.90
23160;DHT22;11748;50.844;4.396;2024-03-07T01:30:59;8.70;99.90
23160;DHT22;11748;50.844;4.396;2024-03-07T01:33:26;8.70;99.90
23160;DHT22;11748;50.844;4.396;2024-03-07T01:35:52;8.70;99.90
23160;DHT22;11748;50.844;4.396;2024-03-07T01:38:18;8.70;99.90
23160;DHT22;11748;50.844;4.396;2024-03-07T01:40:44;8.70;99.90
23160;DHT22;11748;50.844;4.396;2024-03-07T01:43:12;8.60;99.90
23160;DHT22;11748;50.844;4.396;2024-03-07T01:45:38;8.60;99.90
23160;DHT22;11748;50.844;4.396;2024-03-07T01:48:05;8.60;99.90
23160;DHT22;11748;50.844;4.396;2024-03-07T01:50:32;8.60;99.90
23160;DHT22;11748;50.844;4.396;2024-03-07T01:52:59;8.60;99.90
23160;DHT22;11748;50.844;4.396;2024-03-07T01:55:26;8.60;99.90
23160;DHT22;11748;50.844;4.396;2024-03-07T01:57:52;8.60;99.90
23160;DHT22;11748;50.844;4.396;2024-03-07T02:00:17;8.60;99.90
23160;DHT22;11748;50.844;4.396;2024-03-07T02:02:45;8.50;99.90
23160;DHT22;11748;50.844;4.396;2024-03-07T02:05:11;8.60;99.90
23160;DHT22;11748;50.844;4.396;2024-03-07T02:07:37;8.60;99.90
23160;DHT22;11748;50.844;4.396;2024-03-07T02:10:05;8.60;99.90
23160;DHT22;11748;50.844;4.396;2024-03-07T02:12:32;8.50;99.90
23160;DHT22;11748;50.844;4.396;2024-03-07T02:14:58;8.50;99.90
23160;DHT22;11748;50.844;4.396;2024-03-07T02:17:25;8.50;99.90
23160;DHT22;11748;50.844;4.396;2024-03-07T02:19:53;8.50;99.90
23160;DHT22;11748;50.844;4.396;2024-03-07T02:22:19;8.50;99.90
23160;DHT22;11748;50.844;4.396;2024-03-07T02:24:45;8.40;99.90
23160;DHT22;11748;50.844;4.396;2024-03-07T02:27:12;8.50;99.90
23160;DHT22;11748;50.844;4.396;2024-03-07T02:29:41;8.40;99.90
23160;DHT22;11748;50.844;4.396;2024-03-07T02:32:07;8.50;99.90
23160;DHT22;11748;50.844;4.396;2024-03-07T02:34:33;8.40;99.90
23160;DHT22;11748;50.844;4.396;2024-03-07T02:36:59;8.40;99.90
23160;DHT22;11748;50.844;4.396;2024-03-07T02:39:25;8.40;99.90
23160;DHT22;11748;50.844;4.396;2024-03-07T02:41:53;8.40;99.90
23160;DHT22;11748;50.844;4.396;2024-03-07T02:44:20;8.30;99.90
23160;DHT22;11748;50.844;4.396;2024-03-07T02:46:47;8.30;99.90
23160;DHT22;11748;50.844;4.396;2024-03-07T02:49:14;8.20;99.90
23160;DHT22;11748;50.844;4.396;2024-03-07T02:51:40;8.20;99.90
23160;DHT22;11748;50.844;4.396;2024-03-07T02:54:07;8.20;99.90
23160;DHT22;11748;50.844;4.396;2024-03-07T02:56:33;8.20;99.90
23160;DHT22;11748;50.844;4.396;2024-03-07T02:59:00;8.20;99.90
23160;DHT22;11748;50.844;4.396;2024-03-07T03:01:25;8.20;99.90
23160;DHT22;11748;50.844;4.396;2024-03-07T03:03:51;8.10;99.90
23160;DHT22;11748;50.844;4.396;2024-03-07T03:06:16;8.10;99.90
23160;DHT22;11748;50.844;4.396;2024-03-07T03:08:42;8.10;99.90
23160;DHT22;11748;50.844;4.396;2024-03-07T03:11:08;8.00;99.90
23160;DHT22;11748;50.844;4.396;2024-03-07T03:13:42;8.00;99.90
23160;DHT22;11748;50.844;4.396;2024-03-07T03:16:08;8.00;99.90
23160;DHT22;11748;50.844;4.396;2024-03-07T03:18:36;7.90;99.90
23160;DHT22;11748;50.844;4.396;2024-03-07T03:21:02;7.90;99.90
23160;DHT22;11748;50.844;4.396;2024-03-07T03:23:30;7.90;99.90
23160;DHT22;11748;50.844;4.396;2024-03-07T03:25:56;8.00;99.90
23160;DHT22;11748;50.844;4.396;2024-03-07T03:28:23;7.90;99.90
23160;DHT22;11748;50.844;4.396;2024-03-07T03:30:49;7.90;99.90
23160;DHT22;11748;50.844;4.396;2024-03-07T03:33:16;7.90;99.90
23160;DHT22;11748;50.844;4.396;2024-03-07T03:35:42;7.80;99.90
23160;DHT22;11748;50.844;4.396;2024-03-07T03:38:07;7.70;99.90
23160;DHT22;11748;50.844;4.396;2024-03-07T03:40:33;7.70;99.90
23160;DHT22;11748;50.844;4.396;2024-03-07T03:42:59;7.70;99.90
23160;DHT22;11748;50.844;4.396;2024-03-07T03:45:26;7.70;99.90
23160;DHT22;11748;50.844;4.396;2024-03-07T03:47:53;7.80;99.90
23160;DHT22;11748;50.844;4.396;2024-03-07T03:50:19;7.70;99.90
23160;DHT22;11748;50.844;4.396;2024-03-07T03:52:45;7.70;99.90
23160;DHT22;11748;50.844;4.396;2024-03-07T03:55:11;7.60;99.90
23160;DHT22;11748;50.844;4.396;2024-03-07T03:57:39;7.70;99.90
23160;DHT22;11748;50.844;4.396;2024-03-07T04:00:06;7.60;99.90
23160;DHT22;11748;50.844;4.396;2024-03-07T04:02:46;7.60;99.90
23160;DHT22;11748;50.844;4.396;2024-03-07T04:05:14;7.60;99.90
23160;DHT22;11748;50.844;4.396;2024-03-07T04:07:42;7.60;99.90
23160;DHT22;11748;50.844;4.396;2024-03-07T04:10:10;7.60;99.90
23160;DHT22;11748;50.844;4.396;2024-03-07T04:12:37;7.60;99.90
23160;DHT22;11748;50.844;4.396;2024-03-07T04:15:05;7.60;99.90
23160;DHT22;11748;50.844;4.396;2024-03-07T04:17:34;7.60;99.90
23160;DHT22;11748;50.844;4.396;2024-03-07T04:20:00;7.50;99.90
23160;DHT22;11748;50.844;4.396;2024-03-07T04:22:27;7.50;99.90
23160;DHT22;11748;50.844;4.396;2024-03-07T04:24:54;7.40;99.90
23160;DHT22;11748;50.844;4.396;2024-03-07T04:27:20;7.40;99.90
23160;DHT22;11748;50.844;4.396;2024-03-07T04:29:48;7.40;99.90
23160;DHT22;11748;50.844;4.396;2024-03-07T04:32:14;7.30;99.90
23160;DHT22;11748;50.844;4.396;2024-03-07T04:34:40;7.30;99.90
23160;DHT22;11748;50.844;4.396;2024-03-07T04:37:07;7.30;99.90
23160;DHT22;11748;50.844;4.396;2024-03-07T04:39:32;7.20;99.90
23160;DHT22;11748;50.844;4.396;2024-03-07T04:42:08;7.20;99.90
23160;DHT22;11748;50.844;4.396;2024-03-07T04:44:36;7.20;99.90
23160;DHT22;11748;50.844;4.396;2024-03-07T04:47:03;7.20;99.90
23160;DHT22;11748;50.844;4.396;2024-03-07T04:49:31;7.20;99.90
23160;DHT22;11748;50.844;4.396;2024-03-07T04:52:00;7.20;99.90
23160;DHT22;11748;50.844;4.396;2024-03-07T04:54:27;7.10;99.90
23160;DHT22;11748;50.844;4.396;2024-03-07T04:56:54;7.10;99.90
23160;DHT22;11748;50.844;4.396;2024-03-07T04:59:21;7.10;99.90
23160;DHT22;11748;50.844;4.396;2024-03-07T05:01:48;7.10;99.90
23160;DHT22;11748;50.844;4.396;2024-03-07T05:04:16;7.10;99.90
23160;DHT22;11748;50.844;4.396;2024-03-07T05:06:42;7.10;99.90
23160;DHT22;11748;50.844;4.396;2024-03-07T05:09:10;7.10;99.90
23160;DHT22;11748;50.844;4.396;2024-03-07T05:11:50;7.10;99.90
23160;DHT22;11748;50.844;4.396;2024-03-07T05:14:18;7.10;99.90
23160;DHT22;11748;50.844;4.396;2024-03-07T05:16:44;7.00;99.90
23160;DHT22;11748;50.844;4.396;2024-03-07T05:19:10;7.00;99.90
23160;DHT22;11748;50.844;4.396;2024-03-07T05:21:36;7.00;99.90
23160;DHT22;11748;50.844;4.396;2024-03-07T05:24:07;7.10;99.90
23160;DHT22;11748;50.844;4.396;2024-03-07T05:26:34;7.10;99.90
23160;DHT22;11748;50.844;4.396;2024-03-07T05:29:06;7.20;99.90
23160;DHT22;11748;50.844;4.396;2024-03-07T05:31:36;7.20;99.90
23160;DHT22;11748;50.844;4.396;2024-03-07T05:34:05;7.20;99.90
23160;DHT22;11748;50.844;4.396;2024-03-07T05:36:35;7.10;99.90
23160;DHT22;11748;50.844;4.396;2024-03-07T05:39:01;7.20;99.90
23160;DHT22;11748;50.844;4.396;2024-03-07T05:41:35;7.20;99.90
23160;DHT22;11748;50.844;4.396;2024-03-07T05:44:00;7.20;99.90
23160;DHT22;11748;50.844;4.396;2024-03-07T05:46:26;7.20;99.90
23160;DHT22;11748;50.844;4.396;2024-03-07T05:48:52;7.20;99.90
23160;DHT22;11748;50.844;4.396;2024-03-07T05:51:22;7.30;99.90
23160;DHT22;11748;50.844;4.396;2024-03-07T05:53:53;7.20;99.90
23160;DHT22;11748;50.844;4.396;2024-03-07T05:56:19;7.10;99.90
23160;DHT22;11748;50.844;4.396;2024-03-07T05:58:45;7.10;99.90
23160;DHT22;11748;50.844;4.396;2024-03-07T06:01:13;7.10;99.90
23160;DHT22;11748;50.844;4.396;2024-03-07T06:03:39;7.10;99.90
23160;DHT22;11748;50.844;4.396;2024-03-07T06:06:05;7.10;99.90
23160;DHT22;11748;50.844;4.396;2024-03-07T06:08:36;7.20;99.90
23160;DHT22;11748;50.844;4.396;2024-03-07T06:11:02;7.20;99.90
23160;DHT22;11748;50.844;4.396;2024-03-07T06:13:28;7.20;99.90
23160;DHT22;11748;50.844;4.396;2024-03-07T06:15:55;7.20;99.90
23160;DHT22;11748;50.844;4.396;2024-03-07T06:18:20;7.10;99.90
23160;DHT22;11748;50.844;4.396;2024-03-07T06:20:46;7.10;99.90
23160;DHT22;11748;50.844;4.396;2024-03-07T06:23:14;7.10;99.90
23160;DHT22;11748;50.844;4.396;2024-03-07T06:25:42;7.10;99.90
23160;DHT22;11748;50.844;4.396;2024-03-07T06:28:19;7.10;99.90
23160;DHT22;11748;50.844;4.396;2024-03-07T06:30:46;7.20;99.90
23160;DHT22;11748;50.844;4.396;2024-03-07T06:33:14;7.20;99.90
23160;DHT22;11748;50.844;4.396;2024-03-07T06:35:40;7.20;99.90
23160;DHT22;11748;50.844;4.396;2024-03-07T06:38:07;7.30;99.90
23160;DHT22;11748;50.844;4.396;2024-03-07T06:40:34;7.20;99.90
23160;DHT22;11748;50.844;4.396;2024-03-07T06:43:00;7.30;99.90
23160;DHT22;11748;50.844;4.396;2024-03-07T06:45:27;7.20;99.90
23160;DHT22;11748;50.844;4.396;2024-03-07T06:47:53;7.30;99.90
23160;DHT22;11748;50.844;4.396;2024-03-07T06:50:19;7.30;99.90
23160;DHT22;11748;50.844;4.396;2024-03-07T06:52:46;7.30;99.90
23160;DHT22;11748;50.844;4.396;2024-03-07T06:55:17;7.40;99.90
23160;DHT22;11748;50.844;4.396;2024-03-07T06:57:44;7.40;99.90
23160;DHT22;11748;50.844;4.396;2024-03-07T07:00:14;7.50;99.90
23160;DHT22;11748;50.844;4.396;2024-03-07T07:02:49;7.50;99.90
23160;DHT22;11748;50.844;4.396;2024-03-07T07:05:15;7.50;99.90
23160;DHT22;11748;50.844;4.396;2024-03-07T07:07:44;7.50;99.90
23160;DHT22;11748;50.844;4.396;2024-03-07T07:10:11;7.60;99.90
23160;DHT22;11748;50.844;4.396;2024-03-07T07:12:45;7.60;99.90
23160;DHT22;11748;50.844;4.396;2024-03-07T07:15:11;7.60;99.90
23160;DHT22;11748;50.844;4.396;2024-03-07T07:17:39;7.60;99.90
23160;DHT22;11748;50.844;4.396;2024-03-07T07:20:05;7.70;99.90
23160;DHT22;11748;50.844;4.396;2024-03-07T07:22:41;7.70;99.90
23160;DHT22;11748;50.844;4.396;2024-03-07T07:25:08;7.80;99.90
23160;DHT22;11748;50.844;4.396;2024-03-07T07:27:45;7.80;99.90
23160;DHT22;11748;50.844;4.396;2024-03-07T07:30:12;7.70;99.90
23160;DHT22;11748;50.844;4.396;2024-03-07T07:32:40;7.80;99.90
23160;DHT22;11748;50.844;4.396;2024-03-07T07:35:07;7.80;99.90
23160;DHT22;11748;50.844;4.396;2024-03-07T07:37:44;7.80;99.90
23160;DHT22;11748;50.844;4.396;2024-03-07T07:40:13;7.90;99.90
23160;DHT22;11748;50.844;4.396;2024-03-07T07:42:45;7.90;99.90
23160;DHT22;11748;50.844;4.396;2024-03-07T07:45:13;7.80;99.90
23160;DHT22;11748;50.844;4.396;2024-03-07T07:47:45;7.80;99.90
23160;DHT22;11748;50.844;4.396;2024-03-07T07:50:15;7.60;99.90
23160;DHT22;11748;50.844;4.396;2024-03-07T07:52:46;7.60;99.90
23160;DHT22;11748;50.844;4.396;2024-03-07T07:55:14;7.70;99.90
23160;DHT22;11748;50.844;4.396;2024-03-07T07:57:48;7.60;99.90
23160;DHT22;11748;50.844;4.396;2024-03-07T08:00:17;7.60;99.90
23160;DHT22;11748;50.844;4.396;2024-03-07T08:05:24;7.60;99.90
23160;DHT22;11748;50.844;4.396;2024-03-07T08:07:56;7.60;99.90
23160;DHT22;11748;50.844;4.396;2024-03-07T08:10:25;7.70;99.90
23160;DHT22;11748;50.844;4.396;2024-03-07T08:12:51;7.80;99.90
23160;DHT22;11748;50.844;4.396;2024-03-07T08:15:17;7.90;99.90
23160;DHT22;11748;50.844;4.396;2024-03-07T08:17:47;8.00;99.90
23160;DHT22;11748;50.844;4.396;2024-03-07T08:20:15;8.00;99.90
23160;DHT22;11748;50.844;4.396;2024-03-07T08:22:42;8.00;99.90
23160;DHT22;11748;50.844;4.396;2024-03-07T08:25:10;8.10;99.90
23160;DHT22;11748;50.844;4.396;2024-03-07T08:27:41;8.20;99.90
23160;DHT22;11748;50.844;4.396;2024-03-07T08:30:08;8.30;99.90
23160;DHT22;11748;50.844;4.396;2024-03-07T08:32:59;8.30;99.90
23160;DHT22;11748;50.844;4.396;2024-03-07T08:35:29;8.30;99.90
23160;DHT22;11748;50.844;4.396;2024-03-07T08:37:57;8.30;99.90
23160;DHT22;11748;50.844;4.396;2024-03-07T08:40:27;8.40;99.90
23160;DHT22;11748;50.844;4.396;2024-03-07T08:42:58;8.50;99.90
23160;DHT22;11748;50.844;4.396;2024-03-07T08:45:28;8.50;99.90
23160;DHT22;11748;50.844;4.396;2024-03-07T08:47:56;8.50;99.90
23160;DHT22;11748;50.844;4.396;2024-03-07T08:50:22;8.50;99.90
23160;DHT22;11748;50.844;4.396;2024-03-07T08:52:50;8.40;99.90
23160;DHT22;11748;50.844;4.396;2024-03-07T08:55:20;8.50;99.90
23160;DHT22;11748;50.844;4.396;2024-03-07T08:57:46;8.50;99.90
23160;DHT22;11748;50.844;4.396;2024-03-07T09:00:14;8.60;99.90
23160;DHT22;11748;50.844;4.396;2024-03-07T09:02:48;8.70;99.90
23160;DHT22;11748;50.844;4.396;2024-03-07T09:05:18;8.70;99.90
23160;DHT22;11748;50.844;4.396;2024-03-07T09:07:44;8.80;99.90
23160;DHT22;11748;50.844;4.396;2024-03-07T09:10:13;8.90;99.90
23160;DHT22;11748;50.844;4.396;2024-03-07T09:12:42;9.00;99.90
23160;DHT22;11748;50.844;4.396;2024-03-07T09:15:08;9.00;99.90
23160;DHT22;11748;50.844;4.396;2024-03-07T09:17:36;9.00;99.90
23160;DHT22;11748;50.844;4.396;2024-03-07T09:20:04;9.10;99.90
23160;DHT22;11748;50.844;4.396;2024-03-07T09:22:43;9.10;99.90
23160;DHT22;11748;50.844;4.396;2024-03-07T09:25:10;9.10;99.90
23160;DHT22;11748;50.844;4.396;2024-03-07T09:27:36;9.20;99.90
23160;DHT22;11748;50.844;4.396;2024-03-07T09:30:03;9.20;99.90
23160;DHT22;11748;50.844;4.396;2024-03-07T09:32:29;9.30;99.90
23160;DHT22;11748;50.844;4.396;2024-03-07T09:34:59;9.30;99.90
23160;DHT22;11748;50.844;4.396;2024-03-07T09:37:27;9.40;99.90
23160;DHT22;11748;50.844;4.396;2024-03-07T09:39:52;9.50;99.90
23160;DHT22;11748;50.844;4.396;2024-03-07T09:42:19;9.70;99.90
23160;DHT22;11748;50.844;4.396;2024-03-07T09:44:48;9.70;99.90
23160;DHT22;11748;50.844;4.396;2024-03-07T09:47:15;9.70;99.90
23160;DHT22;11748;50.844;4.396;2024-03-07T09:49:41;9.80;99.90
23160;DHT22;11748;50.844;4.396;2024-03-07T09:52:07;9.90;99.90
23160;DHT22;11748;50.844;4.396;2024-03-07T09:54:40;9.90;99.90
23160;DHT22;11748;50.844;4.396;2024-03-07T09:57:06;9.90;99.90
23160;DHT22;11748;50.844;4.396;2024-03-07T09:59:35;9.90;99.90
23160;DHT22;11748;50.844;4.396;2024-03-07T10:02:06;9.80;99.90
23160;DHT22;11748;50.844;4.396;2024-03-07T10:04:41;9.70;99.90
23160;DHT22;11748;50.844;4.396;2024-03-07T10:07:11;9.70;99.90
23160;DHT22;11748;50.844;4.396;2024-03-07T10:09:39;9.70;99.90
23160;DHT22;11748;50.844;4.396;2024-03-07T10:12:07;9.70;99.90
23160;DHT22;11748;50.844;4.396;2024-03-07T10:14:35;9.80;99.90
23160;DHT22;11748;50.844;4.396;2024-03-07T10:17:03;9.80;99.90
23160;DHT22;11748;50.844;4.396;2024-03-07T10:19:29;10.00;99.90
23160;DHT22;11748;50.844;4.396;2024-03-07T10:21:57;10.10;99.90
23160;DHT22;11748;50.844;4.396;2024-03-07T10:24:27;10.10;99.90
23160;DHT22;11748;50.844;4.396;2024-03-07T10:26:53;10.10;99.90
23160;DHT22;11748;50.844;4.396;2024-03-07T10:29:22;10.20;99.90
23160;DHT22;11748;50.844;4.396;2024-03-07T10:31:51;10.20;99.90
23160;DHT22;11748;50.844;4.396;2024-03-07T10:34:18;10.20;99.90
23160;DHT22;11748;50.844;4.396;2024-03-07T10:36:44;10.20;99.90
23160;DHT22;11748;50.844;4.396;2024-03-07T10:39:11;10.20;99.90
23160;DHT22;11748;50.844;4.396;2024-03-07T10:44:09;10.40;99.90
23160;DHT22;11748;50.844;4.396;2024-03-07T10:46:39;10.50;99.90
23160;DHT22;11748;50.844;4.396;2024-03-07T10:49:07;10.50;99.90
23160;DHT22;11748;50.844;4.396;2024-03-07T10:51:41;10.60;99.90
23160;DHT22;11748;50.844;4.396;2024-03-07T10:57:30;10.50;99.90
23160;DHT22;11748;50.844;4.396;2024-03-07T11:00:02;10.60;99.90
23160;DHT22;11748;50.844;4.396;2024-03-07T11:02:48;10.60;99.90
23160;DHT22;11748;50.844;4.396;2024-03-07T11:05:16;10.70;99.90
23160;DHT22;11748;50.844;4.396;2024-03-07T11:07:48;10.80;99.90
23160;DHT22;11748;50.844;4.396;2024-03-07T11:10:15;10.70;99.90
23160;DHT22;11748;50.844;4.396;2024-03-07T11:12:44;10.80;99.90
23160;DHT22;11748;50.844;4.396;2024-03-07T11:15:13;11.00;99.90
23160;DHT22;11748;50.844;4.396;2024-03-07T11:17:48;11.20;99.90
23160;DHT22;11748;50.844;4.396;2024-03-07T11:20:21;11.30;99.90
23160;DHT22;11748;50.844;4.396;2024-03-07T11:22:48;11.40;99.90
23160;DHT22;11748;50.844;4.396;2024-03-07T11:25:17;11.60;99.90
23160;DHT22;11748;50.844;4.396;2024-03-07T11:27:58;11.60;99.90
23160;DHT22;11748;50.844;4.396;2024-03-07T11:30:25;11.60;99.90
23160;DHT22;11748;50.844;4.396;2024-03-07T11:32:53;11.50;99.90
23160;DHT22;11748;50.844;4.396;2024-03-07T11:35:32;11.60;99.90
23160;DHT22;11748;50.844;4.396;2024-03-07T11:38:01;11.60;99.90
23160;DHT22;11748;50.844;4.396;2024-03-07T11:42:56;12.00;99.90
23160;DHT22;11748;50.844;4.396;2024-03-07T11:45:26;12.00;99.90
23160;DHT22;11748;50.844;4.396;2024-03-07T11:47:56;12.00;99.90
23160;DHT22;11748;50.844;4.396;2024-03-07T11:50:39;12.00;99.90
23160;DHT22;11748;50.844;4.396;2024-03-07T11:53:07;12.10;99.90
23160;DHT22;11748;50.844;4.396;2024-03-07T11:55:34;12.00;99.90
23160;DHT22;11748;50.844;4.396;2024-03-07T11:58:17;11.90;99.90
23160;DHT22;11748;50.844;4.396;2024-03-07T12:00:52;11.90;99.90
23160;DHT22;11748;50.844;4.396;2024-03-07T12:03:21;11.90;99.90
23160;DHT22;11748;50.844;4.396;2024-03-07T12:05:50;11.90;99.90
23160;DHT22;11748;50.844;4.396;2024-03-07T12:08:17;12.10;99.90
23160;DHT22;11748;50.844;4.396;2024-03-07T12:10:44;12.30;99.90
23160;DHT22;11748;50.844;4.396;2024-03-07T12:13:13;12.60;99.90
23160;DHT22;11748;50.844;4.396;2024-03-07T12:15:42;12.90;99.90
23160;DHT22;11748;50.844;4.396;2024-03-07T12:18:10;13.20;99.90
23160;DHT22;11748;50.844;4.396;2024-03-07T12:20:41;13.20;99.90
23160;DHT22;11748;50.844;4.396;2024-03-07T12:23:09;13.30;99.90
23160;DHT22;11748;50.844;4.396;2024-03-07T12:25:35;13.50;99.90
23160;DHT22;11748;50.844;4.396;2024-03-07T12:28:13;13.40;99.90
23160;DHT22;11748;50.844;4.396;2024-03-07T12:30:55;13.40;99.90
23160;DHT22;11748;50.844;4.396;2024-03-07T12:33:23;13.30;99.90
23160;DHT22;11748;50.844;4.396;2024-03-07T12:35:52;13.40;99.90
23160;DHT22;11748;50.844;4.396;2024-03-07T12:38:21;13.40;99.90
23160;DHT22;11748;50.844;4.396;2024-03-07T12:41:10;13.10;99.90
23160;DHT22;11748;50.844;4.396;2024-03-07T12:43:40;12.90;99.90
23160;DHT22;11748;50.844;4.396;2024-03-07T12:46:12;12.80;99.90
23160;DHT22;11748;50.844;4.396;2024-03-07T12:48:40;12.80;99.90
23160;DHT22;11748;50.844;4.396;2024-03-07T12:51:06;12.80;99.90
23160;DHT22;11748;50.844;4.396;2024-03-07T12:53:32;12.90;99.90
23160;DHT22;11748;50.844;4.396;2024-03-07T12:56:01;12.70;99.90
23160;DHT22;11748;50.844;4.396;2024-03-07T12:58:28;12.40;99.90
23160;DHT22;11748;50.844;4.396;2024-03-07T13:00:57;12.40;99.90
23160;DHT22;11748;50.844;4.396;2024-03-07T13:03:23;12.30;99.90
23160;DHT22;11748;50.844;4.396;2024-03-07T13:05:56;12.50;99.90
23160;DHT22;11748;50.844;4.396;2024-03-07T13:08:21;12.60;99.90
23160;DHT22;11748;50.844;4.396;2024-03-07T13:10:52;12.60;99.90
23160;DHT22;11748;50.844;4.396;2024-03-07T13:13:21;12.50;99.90
23160;DHT22;11748;50.844;4.396;2024-03-07T13:15:47;12.50;99.90
23160;DHT22;11748;50.844;4.396;2024-03-07T13:18:13;12.40;99.90
23160;DHT22;11748;50.844;4.396;2024-03-07T13:20:39;12.40;99.90
23160;DHT22;11748;50.844;4.396;2024-03-07T13:23:05;12.40;99.90
23160;DHT22;11748;50.844;4.396;2024-03-07T13:25:37;12.40;99.90
23160;DHT22;11748;50.844;4.396;2024-03-07T13:28:07;12.30;99.90
23160;DHT22;11748;50.844;4.396;2024-03-07T13:30:35;12.30;99.90
23160;DHT22;11748;50.844;4.396;2024-03-07T13:33:04;12.20;99.90
23160;DHT22;11748;50.844;4.396;2024-03-07T13:35:29;12.50;99.90
23160;DHT22;11748;50.844;4.396;2024-03-07T13:37:56;12.40;99.90
23160;DHT22;11748;50.844;4.396;2024-03-07T13:40:23;12.40;99.90
23160;DHT22;11748;50.844;4.396;2024-03-07T13:42:54;12.50;99.90
23160;DHT22;11748;50.844;4.396;2024-03-07T13:45:38;12.80;99.90
23160;DHT22;11748;50.844;4.396;2024-03-07T13:48:10;13.40;99.90
23160;DHT22;11748;50.844;4.396;2024-03-07T13:50:42;13.60;99.90
23160;DHT22;11748;50.844;4.396;2024-03-07T13:53:10;13.50;99.90
23160;DHT22;11748;50.844;4.396;2024-03-07T14:07:47;12.60;99.90
23160;DHT22;11748;50.844;4.396;2024-03-07T14:10:39;12.40;99.90
23160;DHT22;11748;50.844;4.396;2024-03-07T14:27:23;12.30;99.90
23160;DHT22;11748;50.844;4.396;2024-03-07T14:33:00;12.30;99.90
23160;DHT22;11748;50.844;4.396;2024-03-07T14:38:25;12.10;99.90
23160;DHT22;11748;50.844;4.396;2024-03-07T14:40:51;12.10;99.90
23160;DHT22;11748;50.844;4.396;2024-03-07T14:43:19;12.10;99.90
23160;DHT22;11748;50.844;4.396;2024-03-07T14:45:45;12.20;99.90
23160;DHT22;11748;50.844;4.396;2024-03-07T14:48:16;12.30;99.90
23160;DHT22;11748;50.844;4.396;2024-03-07T14:50:43;12.30;99.90
23160;DHT22;11748;50.844;4.396;2024-03-07T14:53:13;12.30;99.90
23160;DHT22;11748;50.844;4.396;2024-03-07T14:55:42;12.20;99.90
23160;DHT22;11748;50.844;4.396;2024-03-07T14:58:10;12.20;99.90
23160;DHT22;11748;50.844;4.396;2024-03-07T15:00:39;12.30;99.90
23160;DHT22;11748;50.844;4.396;2024-03-07T15:03:14;12.20;99.90
23160;DHT22;11748;50.844;4.396;2024-03-07T15:05:42;12.20;99.90
23160;DHT22;11748;50.844;4.396;2024-03-07T15:08:11;12.10;99.90
23160;DHT22;11748;50.844;4.396;2024-03-07T15:10:39;12.10;99.90
23160;DHT22;11748;50.844;4.396;2024-03-07T15:13:07;12.00;99.90
23160;DHT22;11748;50.844;4.396;2024-03-07T15:15:34;12.00;99.90
23160;DHT22;11748;50.844;4.396;2024-03-07T15:18:02;12.00;99.90
23160;DHT22;11748;50.844;4.396;2024-03-07T15:20:29;11.90;99.90
23160;DHT22;11748;50.844;4.396;2024-03-07T15:22:58;11.90;99.90
23160;DHT22;11748;50.844;4.396;2024-03-07T15:25:25;11.90;99.90
23160;DHT22;11748;50.844;4.396;2024-03-07T15:27:52;11.90;99.90
23160;DHT22;11748;50.844;4.396;2024-03-07T15:30:19;11.80;99.90
23160;DHT22;11748;50.844;4.396;2024-03-07T15:32:46;11.90;99.90
23160;DHT22;11748;50.844;4.396;2024-03-07T15:35:12;11.80;99.90
23160;DHT22;11748;50.844;4.396;2024-03-07T15:37:41;11.70;99.90
23160;DHT22;11748;50.844;4.396;2024-03-07T15:40:08;11.70;99.90
23160;DHT22;11748;50.844;4.396;2024-03-07T15:42:38;11.70;99.90
23160;DHT22;11748;50.844;4.396;2024-03-07T15:45:07;11.70;99.90
23160;DHT22;11748;50.844;4.396;2024-03-07T15:47:42;11.80;99.90
23160;DHT22;11748;50.844;4.396;2024-03-07T15:50:08;11.70;99.90
23160;DHT22;11748;50.844;4.396;2024-03-07T15:52:46;11.70;99.90
23160;DHT22;11748;50.844;4.396;2024-03-07T15:55:12;11.60;99.90
23160;DHT22;11748;50.844;4.396;2024-03-07T15:57:50;11.60;99.90
23160;DHT22;11748;50.844;4.396;2024-03-07T16:00:19;11.50;99.90
23160;DHT22;11748;50.844;4.396;2024-03-07T16:05:21;11.60;99.90
23160;DHT22;11748;50.844;4.396;2024-03-07T16:07:51;11.60;99.90
23160;DHT22;11748;50.844;4.396;2024-03-07T16:10:18;11.50;99.90
23160;DHT22;11748;50.844;4.396;2024-03-07T16:12:44;11.50;99.90
23160;DHT22;11748;50.844;4.396;2024-03-07T16:15:10;11.50;99.90
23160;DHT22;11748;50.844;4.396;2024-03-07T16:17:36;11.50;99.90
23160;DHT22;11748;50.844;4.396;2024-03-07T16:20:02;11.50;99.90
23160;DHT22;11748;50.844;4.396;2024-03-07T16:22:30;11.50;99.90
23160;DHT22;11748;50.844;4.396;2024-03-07T16:24:55;11.60;99.90
23160;DHT22;11748;50.844;4.396;2024-03-07T16:27:22;11.50;99.90
23160;DHT22;11748;50.844;4.396;2024-03-07T16:29:48;11.40;99.90
23160;DHT22;11748;50.844;4.396;2024-03-07T16:32:15;11.30;99.90